createdAt,value
2023-01-04T02:09:13.437Z,8.00
2023-01-04T02:11:40.611Z,8.10
2023-01-04T02:14:27.812Z,8.10
2023-01-04T02:17:11.223Z,8.10
2023-01-04T02:20:16.543Z,8.30
2023-01-04T02:23:09.873Z,8.10
2023-01-04T02:25:55.673Z,8.10
2023-01-04T02:28:34.999Z,8.10
2023-01-04T02:31:14.952Z,8.30
2023-01-04T02:34:00.825Z,8.10
2023-01-04T02:36:43.206Z,8.10
2023-01-04T02:39:32.543Z,8.20
2023-01-04T02:42:04.808Z,8.20
2023-01-04T02:44:58.069Z,8.20
2023-01-04T02:47:55.015Z,8.20
2023-01-04T02:50:32.530Z,8.20
2023-01-04T02:53:19.622Z,8.20
2023-01-04T02:56:02.089Z,8.30
2023-01-04T02:58:59.769Z,8.30
2023-01-04T03:02:07.098Z,8.40
2023-01-04T03:05:28.410Z,8.40
2023-01-04T03:08:06.105Z,8.40
2023-01-04T03:10:39.586Z,8.40
2023-01-04T03:13:21.847Z,8.70
2023-01-04T03:15:55.214Z,8.50
2023-01-04T03:18:29.378Z,8.50
2023-01-04T03:20:59.127Z,8.60
2023-01-04T03:23:49.129Z,8.90
2023-01-04T03:26:37.870Z,8.70
2023-01-04T03:29:32.639Z,8.80
2023-01-04T03:32:25.781Z,8.80
2023-01-04T03:35:13.088Z,8.90
2023-01-04T03:38:15.223Z,9.20
2023-01-04T03:41:15.676Z,9.00
2023-01-04T03:44:09.331Z,9.00
2023-01-04T03:47:06.698Z,9.00
2023-01-04T03:49:47.654Z,9.30
2023-01-04T03:52:16.676Z,9.10
2023-01-04T03:54:48.802Z,9.30
2023-01-04T03:57:16.949Z,9.10
2023-01-04T03:59:53.655Z,9.20
2023-01-04T04:02:29.940Z,9.30
2023-01-04T04:05:16.149Z,9.50
2023-01-04T04:08:02.024Z,9.30
2023-01-04T04:10:29.079Z,9.40
2023-01-04T04:12:56.128Z,9.60
2023-01-04T04:15:23.261Z,9.40
2023-01-04T04:17:50.411Z,9.50
2023-01-04T04:20:17.609Z,9.60
2023-01-04T04:22:44.820Z,9.60
2023-01-04T04:25:11.882Z,9.80
2023-01-04T04:27:41.476Z,9.50
2023-01-04T04:30:09.099Z,9.70
2023-01-04T04:32:36.157Z,9.30
2023-01-04T04:35:03.317Z,9.50
2023-01-04T04:37:32.137Z,9.20
2023-01-04T04:39:59.321Z,9.10
2023-01-04T04:42:26.317Z,9.10
2023-01-04T04:44:53.247Z,9.00
2023-01-04T04:47:20.293Z,9.00
2023-01-04T04:49:47.259Z,9.00
2023-01-04T04:52:14.235Z,9.30
2023-01-04T04:54:41.183Z,8.90
2023-01-04T04:57:08.057Z,8.90
2023-01-04T04:59:36.267Z,8.90
2023-01-04T05:02:03.460Z,8.90
2023-01-04T05:04:30.501Z,8.90
2023-01-04T05:06:57.364Z,9.10
2023-01-04T05:09:24.896Z,8.80
2023-01-04T05:12:11.907Z,8.80
2023-01-04T05:14:39.044Z,8.80
2023-01-04T05:17:06.068Z,9.00
2023-01-04T05:19:32.981Z,8.80
2023-01-04T05:22:00.039Z,8.80
2023-01-04T05:24:27.193Z,8.90
2023-01-04T05:26:54.253Z,8.80
2023-01-04T05:29:39.696Z,8.90
2023-01-04T05:32:07.173Z,8.90
2023-01-04T05:37:30.296Z,8.70
2023-01-04T05:39:58.259Z,8.70
2023-01-04T05:42:25.702Z,8.80
2023-01-04T05:44:53.779Z,8.70
2023-01-04T05:47:21.636Z,8.80
2023-01-04T05:49:49.593Z,8.80
2023-01-04T05:52:17.161Z,8.80
2023-01-04T05:54:44.549Z,8.80
2023-01-04T05:57:12.044Z,8.80
2023-01-04T05:59:42.056Z,8.80
2023-01-04T06:02:19.403Z,8.80
2023-01-04T06:04:51.545Z,8.60
2023-01-04T06:07:21.884Z,8.60
2023-01-04T06:09:48.865Z,8.70
2023-01-04T06:12:16.247Z,8.80
2023-01-04T06:14:43.291Z,8.70
2023-01-04T06:17:10.375Z,8.70
2023-01-04T06:19:51.578Z,8.90
2023-01-04T06:22:47.215Z,8.80
2023-01-04T06:25:18.011Z,8.70
2023-01-04T06:27:45.695Z,8.70
2023-01-04T06:30:18.923Z,8.70
2023-01-04T06:32:45.885Z,8.70
2023-01-04T06:35:13.041Z,8.80
2023-01-04T06:37:43.266Z,8.80
2023-01-04T06:40:11.040Z,8.80
2023-01-04T06:42:47.119Z,8.80
2023-01-04T06:45:16.146Z,8.80
2023-01-04T06:47:43.164Z,8.90
2023-01-04T06:50:18.809Z,9.00
2023-01-04T06:52:49.676Z,8.80
2023-01-04T06:55:17.873Z,8.80
2023-01-04T06:57:56.254Z,8.90
2023-01-04T07:00:29.275Z,9.00
2023-01-04T07:03:12.639Z,8.90
2023-01-04T07:05:42.470Z,9.00
2023-01-04T07:08:09.988Z,8.90
2023-01-04T07:10:37.211Z,8.80
2023-01-04T07:13:05.346Z,8.90
2023-01-04T07:15:39.016Z,8.80
2023-01-04T07:18:14.003Z,8.80
2023-01-04T07:20:40.954Z,8.80
2023-01-04T07:23:10.705Z,9.00
2023-01-04T07:25:42.757Z,8.90
2023-01-04T07:31:23.166Z,9.10
2023-01-04T07:33:51.726Z,9.00
2023-01-04T07:36:22.103Z,8.90
2023-01-04T07:38:49.497Z,9.00
2023-01-04T07:41:19.879Z,9.00
2023-01-04T07:43:48.216Z,9.00
2023-01-04T07:46:15.804Z,9.20
2023-01-04T07:48:44.786Z,9.10
2023-01-04T07:51:11.958Z,9.00
2023-01-04T07:53:46.045Z,9.10
2023-01-04T07:56:18.557Z,9.10
2023-01-04T07:58:56.445Z,9.10
2023-01-04T08:01:32.361Z,9.10
2023-01-04T08:03:59.778Z,9.10
2023-01-04T08:06:36.190Z,9.20
2023-01-04T08:09:04.863Z,9.20
2023-01-04T08:11:32.456Z,9.20
2023-01-04T08:14:01.916Z,9.20
2023-01-04T08:16:34.461Z,9.30
2023-01-04T08:19:07.855Z,9.30
2023-01-04T08:21:36.315Z,9.40
2023-01-04T08:24:17.224Z,9.30
2023-01-04T08:26:45.837Z,9.40
2023-01-04T08:29:13.853Z,9.40
2023-01-04T08:31:41.995Z,9.40
2023-01-04T08:34:10.532Z,9.40
2023-01-04T08:36:46.756Z,9.50
2023-01-04T08:39:18.442Z,9.50
2023-01-04T08:42:20.271Z,9.60
2023-01-04T08:44:51.861Z,9.60
2023-01-04T08:47:23.890Z,9.70
2023-01-04T08:49:51.336Z,9.70
2023-01-04T08:52:28.002Z,9.80
2023-01-04T08:55:10.027Z,9.70
2023-01-04T08:57:43.601Z,9.90
2023-01-04T09:00:15.256Z,9.90
2023-01-04T09:02:42.350Z,9.90
2023-01-04T09:05:09.975Z,10.00
2023-01-04T09:07:39.217Z,10.00
2023-01-04T09:10:06.850Z,10.00
2023-01-04T09:12:34.021Z,10.10
2023-01-04T09:15:03.497Z,10.10
2023-01-04T09:17:46.470Z,10.10
2023-01-04T09:20:25.883Z,10.10
2023-01-04T09:22:56.780Z,10.10
2023-01-04T09:25:24.924Z,10.10
2023-01-04T09:27:53.458Z,10.10
2023-01-04T09:30:20.605Z,10.20
2023-01-04T09:32:48.083Z,10.30
2023-01-04T09:35:15.341Z,10.20
2023-01-04T09:37:42.764Z,10.10
2023-01-04T09:40:31.459Z,10.00
2023-01-04T09:43:20.522Z,9.90
2023-01-04T09:45:52.887Z,9.90
2023-01-04T09:48:26.178Z,9.80
2023-01-04T09:51:05.756Z,9.80
2023-01-04T09:53:49.713Z,9.70
2023-01-04T09:56:38.595Z,9.70
2023-01-04T09:59:18.187Z,9.70
2023-01-04T10:01:49.916Z,9.70
2023-01-04T10:04:40.966Z,9.80
2023-01-04T10:07:18.374Z,9.80
2023-01-04T10:09:46.189Z,9.70
2023-01-04T10:12:38.941Z,9.80
2023-01-04T10:15:09.244Z,9.70
2023-01-04T10:21:30.035Z,9.90
2023-01-04T10:24:24.363Z,9.90
2023-01-04T10:30:24.872Z,10.00
2023-01-04T10:33:14.411Z,10.00
2023-01-04T10:35:46.336Z,10.10
2023-01-04T10:38:24.385Z,10.10
2023-01-04T10:40:52.615Z,10.10
2023-01-04T10:44:13.844Z,10.20
2023-01-04T10:46:44.912Z,10.10
2023-01-04T10:49:37.980Z,10.30
2023-01-04T10:52:19.308Z,10.20
2023-01-04T10:55:08.720Z,10.20
2023-01-04T10:58:09.621Z,10.30
2023-01-04T11:00:52.541Z,10.40
2023-01-04T11:03:26.339Z,10.40
2023-01-04T11:06:10.700Z,10.40
2023-01-04T11:08:43.156Z,10.50
2023-01-04T11:11:13.835Z,10.40
2023-01-04T11:13:41.119Z,10.50
2023-01-04T11:16:09.048Z,10.50
2023-01-04T11:18:41.041Z,10.50
2023-01-04T11:21:14.949Z,10.50
2023-01-04T12:35:56.963Z,10.70
2023-01-04T12:38:52.864Z,10.80
2023-01-04T12:41:20.749Z,10.80
2023-01-04T12:43:49.905Z,10.80
2023-01-04T12:46:50.616Z,10.90
2023-01-04T12:49:27.423Z,10.90
2023-01-04T12:52:30.674Z,11.00
2023-01-04T12:55:02.993Z,11.10
2023-01-04T12:57:38.060Z,10.90
2023-01-04T13:00:07.221Z,10.90
2023-01-04T13:02:51.273Z,11.00
2023-01-04T13:08:13.893Z,10.90
2023-01-04T13:10:43.218Z,11.10
2023-01-04T13:13:18.329Z,11.00
2023-01-04T13:16:16.770Z,11.00
2023-01-04T13:18:48.958Z,11.00
2023-01-04T13:21:24.138Z,11.00
2023-01-04T13:24:03.232Z,11.00
2023-01-04T13:26:50.757Z,11.00
2023-01-04T13:29:47.322Z,11.00
2023-01-04T13:32:29.667Z,11.00
2023-01-04T13:35:15.026Z,11.00
2023-01-04T13:37:47.379Z,10.90
2023-01-04T13:40:34.360Z,11.00
2023-01-04T13:43:16.435Z,11.00
2023-01-04T13:46:16.071Z,11.00
2023-01-04T13:48:47.706Z,11.00
2023-01-04T13:51:17.444Z,11.00
2023-01-04T13:53:54.640Z,10.90
2023-01-04T13:56:27.835Z,11.10
2023-01-04T13:58:55.388Z,11.00
2023-01-04T14:01:27.019Z,11.00
2023-01-04T14:03:55.895Z,11.00
2023-01-04T14:06:33.954Z,11.30
2023-01-04T14:09:00.846Z,11.10
2023-01-04T14:11:50.264Z,11.10
2023-01-04T14:14:32.542Z,11.10
2023-01-04T14:17:14.756Z,11.10
2023-01-04T14:19:49.396Z,11.10
2023-01-04T14:22:19.493Z,11.10
2023-01-04T14:27:39.527Z,11.10
2023-01-04T14:30:18.642Z,11.20
2023-01-04T14:33:06.785Z,11.10
2023-01-04T14:35:34.605Z,11.20
2023-01-04T14:38:06.499Z,11.30
2023-01-04T14:40:39.077Z,11.10
2023-01-04T14:43:35.310Z,11.20
2023-01-04T14:46:03.580Z,11.20
2023-01-04T14:48:53.489Z,11.20
2023-01-04T14:51:53.635Z,11.20
2023-01-04T14:54:25.055Z,11.20
2023-01-04T14:56:55.033Z,11.20
2023-01-04T14:59:24.374Z,11.30
2023-01-04T15:01:53.745Z,11.20
2023-01-04T15:04:21.749Z,11.30
2023-01-04T15:06:52.586Z,11.30
2023-01-04T15:09:20.043Z,11.30
2023-01-04T15:11:47.203Z,11.30
2023-01-04T15:14:15.162Z,11.40
2023-01-04T15:16:45.761Z,11.20
2023-01-04T15:19:14.096Z,11.30
2023-01-04T15:21:42.025Z,11.40
2023-01-04T15:24:10.076Z,11.30
2023-01-04T15:26:52.536Z,11.30
2023-01-04T15:38:06.497Z,11.30
2023-01-04T15:40:36.131Z,11.30
2023-01-04T15:43:03.768Z,11.30
2023-01-04T15:45:37.190Z,11.30
2023-01-04T16:00:22.264Z,11.50
2023-01-04T16:06:10.981Z,11.50
2023-01-04T16:08:42.240Z,11.50
2023-01-04T16:11:53.698Z,11.60
2023-01-04T16:14:21.030Z,11.60
2023-01-04T16:16:48.183Z,11.60
2023-01-04T16:19:15.093Z,11.60
2023-01-04T16:21:41.977Z,11.60
2023-01-04T16:24:35.729Z,11.60
2023-01-04T16:26:57.343Z,11.70
2023-01-04T16:29:24.934Z,11.70
2023-01-04T16:31:51.824Z,11.70
2023-01-04T16:34:18.782Z,11.70
2023-01-04T16:36:45.911Z,11.80
2023-01-04T16:39:13.082Z,11.80
2023-01-04T16:41:39.964Z,11.80
2023-01-04T16:44:07.031Z,11.80
2023-01-04T16:46:35.988Z,11.80
2023-01-04T16:49:04.952Z,11.80
2023-01-04T16:51:34.343Z,11.90
2023-01-04T16:54:07.052Z,11.80
2023-01-04T16:56:34.519Z,11.90
2023-01-04T16:59:04.746Z,11.90
2023-01-04T17:01:38.239Z,11.90
2023-01-04T17:04:14.853Z,11.90
2023-01-04T17:07:01.801Z,12.00
2023-01-04T17:12:46.927Z,12.10
2023-01-04T17:15:42.034Z,12.10
2023-01-04T17:18:01.953Z,12.10
2023-01-04T17:20:28.930Z,12.10
2023-01-04T17:22:56.097Z,12.20
2023-01-04T17:25:25.545Z,12.20
2023-01-04T17:27:53.303Z,12.30
2023-01-04T17:30:32.169Z,12.30
2023-01-04T17:36:09.691Z,12.30
2023-01-04T17:38:40.073Z,12.40
2023-01-04T17:41:15.585Z,12.40
2023-01-04T17:43:44.580Z,12.40
2023-01-04T17:46:22.588Z,12.40
2023-01-04T17:49:21.007Z,12.50
2023-01-04T17:51:46.895Z,12.40
2023-01-04T17:54:14.021Z,12.50
2023-01-04T17:56:40.997Z,12.50
2023-01-04T17:59:07.956Z,12.50
2023-01-04T18:01:36.122Z,12.60
2023-01-04T18:04:03.981Z,12.60
2023-01-04T18:06:33.501Z,12.60
2023-01-04T18:09:01.627Z,12.70
2023-01-04T18:11:28.693Z,12.60
2023-01-04T18:13:56.270Z,12.60
2023-01-04T18:16:26.678Z,12.60
2023-01-04T18:18:58.527Z,12.60
2023-01-04T18:21:31.066Z,12.60
2023-01-04T18:27:20.379Z,12.50
2023-01-04T18:29:34.113Z,12.50
2023-01-04T18:32:01.090Z,12.50
2023-01-04T18:34:30.643Z,12.40
2023-01-04T18:37:08.111Z,12.20
2023-01-04T18:39:35.008Z,12.20
2023-01-04T18:42:02.229Z,12.10
2023-01-04T18:44:33.923Z,12.00
2023-01-04T18:47:04.961Z,11.90
2023-01-04T18:49:32.152Z,11.90
2023-01-04T18:51:59.155Z,11.90
2023-01-04T18:54:26.043Z,11.90
2023-01-04T18:57:00.366Z,11.90
2023-01-04T18:59:29.671Z,11.90
2023-01-04T19:02:01.502Z,11.90
2023-01-04T19:04:34.556Z,12.00
2023-01-04T19:07:01.885Z,11.90
2023-01-04T19:09:28.816Z,11.90
2023-01-04T19:11:55.652Z,11.90
2023-01-04T19:14:22.581Z,12.00
2023-01-04T19:16:49.662Z,12.00
2023-01-04T19:19:16.605Z,12.00
2023-01-04T19:21:43.519Z,12.00
2023-01-04T19:24:10.531Z,12.00
2023-01-04T19:26:37.471Z,11.90
2023-01-04T19:29:05.188Z,11.90
2023-01-04T19:31:32.163Z,11.90
2023-01-04T19:33:59.063Z,11.90
2023-01-04T19:36:26.055Z,11.90
2023-01-04T19:38:55.308Z,11.90
2023-01-04T19:41:32.774Z,12.00
2023-01-04T19:44:09.258Z,11.90
2023-01-04T19:46:39.319Z,12.00
2023-01-04T19:49:12.715Z,12.00
2023-01-04T19:51:44.679Z,12.00
2023-01-04T19:54:12.426Z,12.00
2023-01-04T19:56:41.135Z,12.10
2023-01-04T19:59:08.229Z,12.10
2023-01-04T20:01:35.823Z,12.10
2023-01-04T20:04:03.144Z,12.10
2023-01-04T20:06:30.287Z,12.10
2023-01-04T20:08:57.171Z,12.20
2023-01-04T20:11:24.033Z,12.20
2023-01-04T20:13:50.926Z,12.20
2023-01-04T20:16:17.897Z,12.20
2023-01-04T20:18:47.394Z,12.30
2023-01-04T20:21:14.836Z,12.30
2023-01-04T20:23:41.955Z,12.30
2023-01-04T20:26:12.885Z,12.30
2023-01-04T20:28:41.895Z,12.30
2023-01-04T20:31:10.847Z,12.30
2023-01-04T20:33:38.078Z,12.40
2023-01-04T20:36:26.687Z,12.40
2023-01-04T20:38:54.923Z,12.40
2023-01-04T20:41:23.687Z,12.40
2023-01-04T20:43:50.997Z,12.40
2023-01-04T20:46:24.309Z,12.40
2023-01-04T20:48:51.223Z,12.40
2023-01-04T20:51:20.944Z,12.50
2023-01-04T20:53:48.634Z,12.40
2023-01-04T20:56:23.781Z,12.30
2023-01-04T20:58:51.275Z,12.20
2023-01-04T21:01:19.973Z,12.10
2023-01-04T21:03:47.124Z,12.10
2023-01-04T21:06:16.294Z,12.10
2023-01-04T21:08:44.517Z,12.10
2023-01-04T21:11:13.054Z,12.00
2023-01-04T21:13:40.070Z,12.00
2023-01-04T21:16:07.334Z,12.00
2023-01-04T21:18:34.677Z,11.90
2023-01-04T21:21:09.563Z,11.80
2023-01-04T21:23:38.134Z,11.80
2023-01-04T21:26:06.925Z,11.80
2023-01-04T21:28:34.227Z,11.80
2023-01-04T21:31:01.231Z,11.70
2023-01-04T21:33:28.274Z,11.80
2023-01-04T21:35:55.199Z,11.80
2023-01-04T21:38:22.070Z,11.80
2023-01-04T21:40:48.940Z,11.80
2023-01-04T21:43:17.786Z,11.90
2023-01-04T21:45:44.748Z,11.90
2023-01-04T21:48:11.612Z,12.00
2023-01-04T21:50:38.559Z,12.10
2023-01-04T21:53:05.521Z,12.10
2023-01-04T21:55:34.913Z,12.20
2023-01-04T21:58:02.746Z,12.20
2023-01-04T22:00:29.674Z,12.30
2023-01-04T22:02:56.617Z,12.20
2023-01-04T22:05:23.639Z,12.20
2023-01-04T22:07:50.557Z,12.30
2023-01-04T22:10:17.510Z,12.20
2023-01-04T22:12:45.040Z,12.20
2023-01-04T22:15:11.951Z,12.20
2023-01-04T22:17:39.014Z,12.20
2023-01-04T22:20:06.670Z,12.10
2023-01-04T22:22:33.566Z,11.80
2023-01-04T22:25:00.437Z,11.90
2023-01-04T22:27:27.325Z,11.80
2023-01-04T22:29:56.174Z,11.70
2023-01-04T22:32:23.038Z,11.60
2023-01-04T22:34:50.367Z,11.60
2023-01-04T22:37:17.350Z,11.50
2023-01-04T22:39:44.221Z,11.40
2023-01-04T22:42:11.067Z,11.50
2023-01-04T22:44:37.911Z,11.40
2023-01-04T22:47:04.948Z,11.50
2023-01-04T22:49:32.005Z,11.40
2023-01-04T22:51:59.051Z,11.40
2023-01-04T22:54:25.983Z,11.30
2023-01-04T22:56:52.872Z,11.30
2023-01-04T22:59:19.733Z,11.20
2023-01-04T23:01:46.612Z,11.20
2023-01-04T23:04:16.337Z,11.20
2023-01-04T23:06:43.863Z,11.20
2023-01-04T23:09:13.936Z,11.10
2023-01-04T23:11:41.588Z,11.10
2023-01-04T23:14:13.142Z,11.10
2023-01-04T23:16:40.072Z,11.00
2023-01-04T23:19:07.257Z,11.00
2023-01-04T23:21:34.921Z,11.00
2023-01-04T23:24:02.269Z,10.90
2023-01-04T23:26:31.467Z,10.90
2023-01-04T23:28:59.395Z,10.90
2023-01-04T23:31:29.289Z,10.90
2023-01-04T23:33:58.592Z,10.90
2023-01-04T23:36:31.519Z,10.90
2023-01-04T23:39:00.887Z,10.90
2023-01-04T23:41:46.812Z,11.00
2023-01-04T23:44:25.445Z,11.00
2023-01-04T23:46:57.675Z,11.00
2023-01-04T23:49:26.052Z,11.00
2023-01-04T23:51:53.259Z,11.00
2023-01-04T23:54:20.584Z,11.00
2023-01-04T23:56:47.544Z,11.00
2023-01-04T23:59:14.422Z,11.00
